Daytona Beach, Florida
Current Conditions -  °F | °C
As of 7:53 AM on Tuesday 21 Oct 2014 (Local Time) from KDAB Reporting Station
Haze Haze  
Wind Chill: 68°   Ceiling: 25000
Heat Index: 68°   Visibility: 5mi
Dew Point: 66°   Wind: 0mph
Humidity: 93%   Direction: NA
Pressure: 29.96"   Gusts: NA
Location:  29.2°N, 81.04°W
Report Text: KDAB 211153Z 00000KT 5SM BR SCT090 SCT130 BKN250 20/19 A2996 RMK AO2 SLP145 CB DSNT NE T02000189 10211 20200 53009
Loading
Personal Weather Stations






























Interactive Weather Map
Tropical Storm Tracking
New forecast layout! Learn more

10-Day Weather Forecast

Advertisements
Track Severe Weather on mobile